Time;durP1;ratioP1;P1;durP2;ratioP2;P2;SDS_P1;SDS_P2;PMS_P1;PMS_P2;Temp;Humidity;BMP_temperature;BMP_pressure;BME280_temperature;BME280_humidity;BME280_pressure;Samples;Min_cycle;Max_cycle;Signal;HPM_P1;HPM_P2
2022/05/15 00:02:01;;;;;;;54.95;14.82;;;;;;;-144.47;51.64;53257.31;5033650;28;20035;-66
2022/05/15 00:04:26;;;;;;;63.90;17.02;;;;;;;-144.47;51.96;53261.28;5030108;28;20037;-67
2022/05/15 00:06:51;;;;;;;54.83;15.02;;;;;;;-144.47;51.94;53271.22;5025306;28;20018;-66
2022/05/15 00:09:17;;;;;;;51.88;15.70;;;;;;;-144.47;52.02;53251.34;5027266;28;20025;-66
2022/05/15 00:11:43;;;;;;;46.65;16.55;;;;;;;-144.47;52.01;53251.34;5029857;28;20175;-67
2022/05/15 00:14:08;;;;;;;58.65;15.82;;;;;;;-144.47;52.07;53249.38;5016625;28;20032;-68
2022/05/15 00:16:34;;;;;;;52.00;16.38;;;;;;;-144.47;52.21;53235.47;5029587;28;20021;-67
2022/05/15 00:19:00;;;;;;;56.40;14.35;;;;;;;-144.47;52.26;53271.22;5035823;28;20128;-68
2022/05/15 00:21:26;;;;;;;56.05;16.10;;;;;;;-144.47;52.60;53247.38;5020135;28;20060;-67
2022/05/15 00:23:51;;;;;;;53.13;15.10;;;;;;;-144.47;52.55;53251.34;5028798;28;20029;-67
2022/05/15 00:26:17;;;;;;;72.93;16.33;;;;;;;-144.47;52.50;53305.00;5027504;28;20032;-67
2022/05/15 00:28:42;;;;;;;60.78;17.42;;;;;;;-144.47;52.81;53259.31;5031057;28;20029;-68
2022/05/15 00:31:08;;;;;;;54.53;16.75;;;;;;;-144.47;52.94;53203.69;5039576;28;20025;-66
2022/05/15 00:33:34;;;;;;;56.03;15.35;;;;;;;-144.47;52.86;53261.28;5035906;28;20109;-68
2022/05/15 00:35:59;;;;;;;56.30;16.13;;;;;;;-144.47;52.83;53271.22;5029547;28;20489;-66
2022/05/15 00:38:24;;;;;;;59.88;15.85;;;;;;;-144.47;53.02;53259.31;5042725;28;20538;-69
2022/05/15 00:40:51;;;;;;;77.80;17.20;;;;;;;-144.47;52.69;53271.22;5028749;28;20032;-66
2022/05/15 00:43:43;;;;;;;66.18;16.25;;;;;;;-144.47;52.82;53283.13;5025408;28;20033;-65
2022/05/15 00:46:26;;;;;;;68.03;17.60;;;;;;;-144.47;52.55;53275.19;5010152;28;20018;-67
2022/05/15 00:48:52;;;;;;;67.65;16.63;;;;;;;-144.47;52.60;53199.72;5029640;28;20029;-66
2022/05/15 00:51:26;;;;;;;55.22;17.13;;;;;;;-144.47;52.89;53247.38;5029344;28;20037;-67
2022/05/15 00:53:57;;;;;;;61.60;16.67;;;;;;;-144.47;52.89;53261.28;5030271;28;20370;-67
2022/05/15 00:56:26;;;;;;;54.88;17.13;;;;;;;-144.47;53.16;53275.19;5028808;28;20025;-67
2022/05/15 00:58:59;;;;;;;;;;;;;;;-144.47;53.09;53279.16;5040816;28;20504;-67
2022/05/15 01:01:24;;;;;;;82.13;16.17;;;;;;;-144.47;53.16;53259.31;5037076;28;19909;-68
2022/05/15 01:03:49;;;;;;;56.05;15.50;;;;;;;-144.47;53.29;53273.22;5034144;28;20037;-66
2022/05/15 01:06:15;;;;;;;55.67;16.83;;;;;;;-144.47;53.46;53275.19;5030318;28;20034;-65
2022/05/15 01:08:41;;;;;;;64.22;17.80;;;;;;;-144.47;53.66;53267.25;5023044;28;20026;-66
2022/05/15 01:11:11;;;;;;;55.17;17.08;;;;;;;-144.47;53.91;53318.91;5031441;28;20096;-67
2022/05/15 01:13:39;;;;;;;73.93;17.13;;;;;;;-144.47;54.01;53306.97;5026719;28;20029;-68
2022/05/15 01:16:05;;;;;;;93.05;18.15;;;;;;;-144.47;54.16;53277.19;5025549;28;20021;-68
2022/05/15 01:18:33;;;;;;;63.50;17.15;;;;;;;-144.47;54.16;53285.13;5052062;28;20037;-67
2022/05/15 01:21:00;;;;;;;48.38;15.85;;;;;;;-144.47;54.44;53281.16;5032591;28;20033;-68
2022/05/15 01:23:26;;;;;;;63.15;17.55;;;;;;;-144.47;54.56;53275.19;5032654;28;20481;-67
2022/05/15 01:25:52;;;;;;;61.45;16.35;;;;;;;-144.47;54.78;53291.09;5046202;28;20040;-69
2022/05/15 01:28:20;;;;;;;45.17;14.13;;;;;;;-144.47;54.80;53285.13;5032936;28;20508;-69
2022/05/15 01:30:49;;;;;;;57.92;15.57;;;;;;;-144.47;54.85;53273.22;5038693;28;20502;-65
2022/05/15 01:33:14;;;;;;;52.90;15.55;;;;;;;-144.47;54.80;53251.34;5042801;28;20091;-67
2022/05/15 01:35:39;;;;;;;78.97;16.83;;;;;;;-144.47;54.84;53281.16;5032587;28;20022;-65
2022/05/15 01:38:05;;;;;;;49.17;15.43;;;;;;;-144.47;54.64;53269.22;5045469;28;20028;-67
2022/05/15 01:40:31;;;;;;;86.20;17.45;;;;;;;-144.47;54.78;53275.19;5020227;28;20029;-66
2022/05/15 01:42:58;;;;;;;53.75;16.50;;;;;;;-144.47;54.66;53275.19;5032729;28;20140;-67
2022/05/15 01:45:24;;;;;;;75.10;18.42;;;;;;;-144.47;54.75;53275.19;5040369;28;20554;-67
2022/05/15 01:47:49;;;;;;;68.40;18.38;;;;;;;-144.47;54.88;53279.16;5031097;28;20017;-68
2022/05/15 01:50:15;;;;;;;58.78;17.65;;;;;;;-144.47;54.90;53301.03;5035049;28;20031;-67
2022/05/15 01:52:41;;;;;;;72.97;18.33;;;;;;;-144.47;54.97;53308.97;5036277;28;20029;-65
2022/05/15 01:55:07;;;;;;;59.88;18.25;;;;;;;-144.47;55.05;53263.28;5031008;28;20147;-66
2022/05/15 01:57:32;;;;;;;71.60;19.88;;;;;;;-144.47;55.46;53253.34;5044908;28;20108;-68
2022/05/15 01:59:57;;;;;;;66.13;17.95;;;;;;;-144.47;55.52;53261.28;5012291;28;20138;-66
2022/05/15 02:02:23;;;;;;;60.20;19.40;;;;;;;-144.47;55.60;53269.22;5013168;28;20025;-67
2022/05/15 02:04:49;;;;;;;55.00;16.77;;;;;;;-144.47;55.84;53285.13;5042080;28;20025;-68
2022/05/15 02:07:14;;;;;;;64.05;17.75;;;;;;;-144.47;56.04;53301.03;5037940;28;20029;-68
2022/05/15 02:09:40;;;;;;;83.03;16.17;;;;;;;-144.47;56.11;53281.16;5045222;28;20022;-65
2022/05/15 02:12:06;;;;;;;54.33;16.58;;;;;;;-144.47;56.18;53269.22;5032796;28;20480;-65
2022/05/15 02:14:32;;;;;;;46.10;14.20;;;;;;;-144.47;56.04;53305.00;5030384;28;20025;-67
2022/05/15 02:16:57;;;;;;;56.05;15.10;;;;;;;-144.47;56.42;53279.16;5032356;28;20022;-67
2022/05/15 02:19:22;;;;;;;56.22;13.93;;;;;;;-144.47;56.79;53271.22;5038954;28;20076;-68
2022/05/15 02:21:48;;;;;;;50.60;13.38;;;;;;;-144.47;57.14;53328.81;5025013;28;20029;-67
2022/05/15 02:24:14;;;;;;;49.25;12.93;;;;;;;-144.47;57.08;53301.03;5031470;28;20092;-68
2022/05/15 02:26:40;;;;;;;51.20;12.95;;;;;;;-144.47;57.37;53295.06;5029193;28;20499;-66
2022/05/15 02:29:06;;;;;;;48.47;13.23;;;;;;;-144.47;57.31;53283.13;5028674;28;20029;-65
2022/05/15 02:31:32;;;;;;;51.78;13.90;;;;;;;-144.47;57.44;53233.47;5012994;28;20437;-67
2022/05/15 02:33:58;;;;;;;59.15;14.23;;;;;;;-144.47;57.72;53275.19;5030272;28;20160;-67
2022/05/15 02:36:25;;;;;;;42.88;14.52;;;;;;;-144.47;58.03;53289.09;5031386;28;20061;-66
2022/05/15 02:38:50;;;;;;;64.03;14.30;;;;;;;-144.47;58.36;53316.91;5036557;28;20428;-66
2022/05/15 02:41:16;;;;;;;55.28;15.05;;;;;;;-144.47;58.49;53320.88;5026979;28;20034;-66
2022/05/15 02:43:41;;;;;;;56.28;15.80;;;;;;;-144.47;58.36;53308.97;5042801;28;20037;-68
2022/05/15 02:46:07;;;;;;;58.42;15.48;;;;;;;-144.47;58.64;53297.03;5031476;28;20018;-69
2022/05/15 02:51:16;;;;;;;45.00;13.80;;;;;;;-144.47;58.93;53277.19;5032186;28;20086;-65
2022/05/15 02:53:43;;;;;;;55.13;16.30;;;;;;;-144.47;59.17;53299.03;5043238;28;20021;-65
2022/05/15 02:56:17;;;;;;;49.53;14.85;;;;;;;-144.47;59.12;53291.09;5037078;28;20017;-65
2022/05/15 02:58:43;;;;;;;44.83;13.73;;;;;;;-144.47;59.25;53273.22;5026521;28;20022;-67
2022/05/15 03:01:09;;;;;;;58.10;18.35;;;;;;;-144.47;59.29;53281.16;5024478;28;20033;-66
2022/05/15 03:03:34;;;;;;;32.35;14.55;;;;;;;-144.47;59.47;53287.13;5023782;28;20029;-66
2022/05/15 03:06:00;;;;;;;54.00;14.98;;;;;;;-144.47;59.63;53293.06;5034211;28;20048;-66
2022/05/15 03:08:25;;;;;;;49.03;14.63;;;;;;;-144.47;59.31;53297.03;5029389;28;20025;-67
2022/05/15 03:10:51;;;;;;;46.53;15.40;;;;;;;-144.47;59.42;53312.94;5035094;28;20025;-65
2022/05/15 03:13:17;;;;;;;36.20;12.85;;;;;;;-144.47;59.70;53297.03;5031239;28;20392;-64
2022/05/15 03:15:42;;;;;;;38.67;14.77;;;;;;;-144.47;60.00;53295.06;5044345;28;20662;-67
2022/05/15 03:18:07;;;;;;;60.63;14.75;;;;;;;-144.47;60.05;53303.00;5030693;28;20501;-66
2022/05/15 03:20:33;;;;;;;51.75;16.65;;;;;;;-144.47;60.32;53316.91;5026726;28;20120;-67
2022/05/15 03:22:59;;;;;;;54.13;14.40;;;;;;;-144.47;60.41;53295.06;5020490;28;20025;-67
2022/05/15 03:25:27;;;;;;;65.07;14.88;;;;;;;-144.47;60.50;53277.19;5040922;28;20022;-66
2022/05/15 03:27:54;;;;;;;52.22;14.82;;;;;;;-144.47;60.32;53340.75;5021004;28;20023;-67
2022/05/15 03:30:19;;;;;;;73.45;15.98;;;;;;;-144.47;60.49;53289.09;5033395;28;20057;-68
2022/05/15 03:32:44;;;;;;;56.05;16.27;;;;;;;-144.47;59.97;53312.94;5040545;28;20061;-66
2022/05/15 03:35:11;;;;;;;53.03;16.15;;;;;;;-144.47;59.75;53318.91;5029654;28;20133;-67
2022/05/15 03:37:37;;;;;;;57.90;15.20;;;;;;;-144.47;59.75;53285.13;5020496;28;20030;-65
2022/05/15 03:40:04;;;;;;;50.70;14.85;;;;;;;-144.47;59.95;53263.28;5027169;28;20021;-67
2022/05/15 03:42:29;;;;;;;55.05;15.13;;;;;;;-144.47;59.59;53301.03;5030443;28;20029;-69
2022/05/15 03:44:54;;;;;;;59.42;16.15;;;;;;;-144.47;59.37;53277.19;5043803;28;20029;-68
2022/05/15 03:47:20;;;;;;;52.60;15.93;;;;;;;-144.47;59.67;53314.91;5023826;28;20113;-69
2022/05/15 03:49:46;;;;;;;50.42;16.13;;;;;;;-144.47;59.64;53291.09;5028481;28;20079;-68
2022/05/15 03:52:11;;;;;;;51.03;17.42;;;;;;;-144.47;59.45;53310.94;5038349;28;20028;-67
2022/05/15 03:54:37;;;;;;;67.78;16.50;;;;;;;-144.47;59.03;53271.22;5027300;28;20028;-66
2022/05/15 03:57:03;;;;;;;58.30;16.38;;;;;;;-144.47;58.85;53305.00;5041676;28;20079;-67
2022/05/15 03:59:35;;;;;;;53.28;17.17;;;;;;;-144.47;58.95;53285.13;5029945;28;20061;-67
2022/05/15 04:02:02;;;;;;;50.65;16.13;;;;;;;-144.47;58.89;53301.03;5029999;28;20029;-68
2022/05/15 04:04:27;;;;;;;53.75;16.48;;;;;;;-144.47;58.80;53297.03;5042312;28;20147;-67
2022/05/15 04:06:53;;;;;;;50.45;17.00;;;;;;;-144.47;59.15;53285.13;5025171;28;20042;-67
2022/05/15 04:09:18;;;;;;;57.38;16.42;;;;;;;-144.47;59.08;53301.03;5029002;28;20060;-69
2022/05/15 04:11:44;;;;;;;48.10;15.93;;;;;;;-144.47;58.87;53271.22;5039497;28;20112;-67
2022/05/15 04:14:09;;;;;;;54.78;15.15;;;;;;;-144.47;58.99;53306.97;5030034;28;20033;-66
2022/05/15 04:16:35;;;;;;;61.15;16.73;;;;;;;-144.47;58.83;53299.03;5029851;28;20013;-67
2022/05/15 04:19:02;;;;;;;53.03;15.32;;;;;;;-144.47;58.93;53295.06;5029234;28;20048;-68
2022/05/15 04:21:36;;;;;;;49.60;16.02;;;;;;;-144.47;58.89;53299.03;5029783;28;20446;-67
2022/05/15 04:24:04;;;;;;;50.67;14.13;;;;;;;-144.47;58.60;53287.13;5047416;28;20055;-66
2022/05/15 04:26:29;;;;;;;42.47;14.63;;;;;;;-144.47;58.71;53287.13;5033289;28;20024;-66
2022/05/15 04:28:54;;;;;;;44.83;15.90;;;;;;;-144.47;58.55;53301.03;5024195;28;20029;-67
2022/05/15 04:31:19;;;;;;;63.72;18.42;;;;;;;-144.47;58.28;53320.88;5032565;28;20120;-67
2022/05/15 04:33:45;;;;;;;37.25;15.63;;;;;;;-144.47;58.25;53285.13;5031420;28;20071;-68
2022/05/15 04:36:10;;;;;;;67.88;16.67;;;;;;;-144.47;58.23;53320.88;5040645;28;20075;-67
2022/05/15 04:38:35;;;;;;;52.08;15.48;;;;;;;-144.47;57.91;53285.13;5031743;28;20470;-68
2022/05/15 04:41:01;;;;;;;40.15;14.52;;;;;;;-144.47;57.90;53312.94;5029573;28;20052;-67
2022/05/15 04:43:26;;;;;;;43.22;14.10;;;;;;;-144.47;57.64;53277.19;5029693;28;20022;-68
2022/05/15 04:45:51;;;;;;;41.55;12.65;;;;;;;-144.47;57.44;53265.25;5029485;28;20025;-67
2022/05/15 04:48:16;;;;;;;50.25;13.70;;;;;;;-144.47;57.11;53295.06;5028189;28;20117;-66
2022/05/15 04:50:42;;;;;;;46.67;13.77;;;;;;;-144.47;57.14;53285.13;5028226;28;20029;-68
2022/05/15 04:53:07;;;;;;;35.97;13.85;;;;;;;-144.47;57.05;53273.22;5042013;28;20044;-66
2022/05/15 04:55:33;;;;;;;38.90;13.32;;;;;;;-144.47;57.11;53279.16;5026318;28;20045;-68
2022/05/15 04:57:59;;;;;;;38.40;13.05;;;;;;;-144.47;57.03;53289.09;5033869;28;20028;-69
2022/05/15 05:00:24;;;;;;;52.33;13.25;;;;;;;-144.47;56.67;53297.03;5008904;28;20396;-69
2022/05/15 05:02:49;;;;;;;56.08;12.70;;;;;;;-144.47;56.52;53308.97;5026140;28;20522;-66
2022/05/15 05:05:15;;;;;;;50.03;13.25;;;;;;;-144.47;56.37;53263.28;5038802;28;20056;-67
2022/05/15 05:07:41;;;;;;;35.00;12.05;;;;;;;-144.47;56.26;53273.22;5043209;28;20384;-69
2022/05/15 05:10:11;;;;;;;42.53;11.20;;;;;;;-144.47;55.98;53293.06;5029839;28;20109;-66
2022/05/15 05:12:37;;;;;;;46.90;12.43;;;;;;;-144.47;56.19;53287.13;5027386;28;20033;-67
2022/05/15 05:15:04;;;;;;;40.72;11.13;;;;;;;-144.47;55.75;53283.13;5008985;28;20041;-65
2022/05/15 05:17:29;;;;;;;37.63;11.52;;;;;;;-144.47;55.44;53247.38;5026232;28;20049;-68
2022/05/15 05:19:54;;;;;;;33.75;12.88;;;;;;;-144.47;55.13;53293.06;5027945;28;20041;-68
2022/05/15 05:22:20;;;;;;;36.00;12.25;;;;;;;-144.47;55.05;53249.38;5031965;28;20029;-67
2022/05/15 05:24:45;;;;;;;45.38;11.50;;;;;;;-144.47;55.05;53243.41;5026992;28;20097;-68
2022/05/15 05:27:10;;;;;;;52.10;12.90;;;;;;;-144.47;55.15;53301.03;5028899;28;20542;-65
2022/05/15 05:29:36;;;;;;;45.53;11.30;;;;;;;-144.47;54.65;53261.28;5047994;28;20035;-66
2022/05/15 05:32:02;;;;;;;28.67;11.23;;;;;;;-144.47;53.84;53305.00;5043999;28;20040;-66
2022/05/15 05:34:28;;;;;;;44.22;11.43;;;;;;;-144.47;53.46;53285.13;5038519;28;20025;-67
2022/05/15 05:36:53;;;;;;;48.42;11.80;;;;;;;-144.47;53.26;53257.31;5043658;28;20017;-67
2022/05/15 05:39:19;;;;;;;46.50;10.95;;;;;;;-144.47;53.22;53221.56;5017476;28;20029;-67
2022/05/15 05:41:44;;;;;;;48.78;10.38;;;;;;;-144.47;53.04;53273.22;5016222;28;20064;-66
2022/05/15 05:44:11;;;;;;;50.17;11.85;;;;;;;-144.47;53.12;53306.97;5027312;28;20041;-66
2022/05/15 05:46:37;;;;;;;35.10;10.57;;;;;;;-144.47;53.12;53269.22;5023206;28;20018;-66
2022/05/15 05:49:02;;;;;;;36.70;9.38;;;;;;;-144.47;52.90;53269.22;4988420;22;1029282;-62
2022/05/15 05:51:28;;;;;;;31.67;7.53;;;;;;;-144.47;52.67;53261.28;4995830;28;20580;-63
2022/05/15 05:53:53;;;;;;;36.35;9.20;;;;;;;-144.47;52.21;53253.34;4991324;28;20038;-64
2022/05/15 05:56:18;;;;;;;37.55;8.70;;;;;;;-144.47;52.04;53267.25;4972627;28;20042;-63
2022/05/15 05:58:45;;;;;;;27.77;7.82;;;;;;;-144.47;52.35;53235.47;4997752;28;20032;-62
2022/05/15 06:01:10;;;;;;;30.95;9.15;;;;;;;-144.47;52.34;53245.41;4998106;28;20036;-65
2022/05/15 06:06:20;;;;;;;37.25;9.25;;;;;;;-144.47;51.64;53265.25;5002944;28;20034;-62
2022/05/15 06:08:45;;;;;;;33.20;8.25;;;;;;;-144.47;51.76;53289.09;4993651;28;20034;-62
2022/05/15 06:11:12;;;;;;;25.77;7.45;;;;;;;-144.47;51.91;53253.34;5009872;28;20099;-63
2022/05/15 06:13:39;;;;;;;28.38;7.88;;;;;;;-144.47;51.12;53293.06;5010970;28;20033;-63
2022/05/15 06:16:05;;;;;;;34.97;6.68;;;;;;;-144.47;50.69;53247.38;5008473;28;20042;-65
2022/05/15 06:18:31;;;;;;;15.25;5.10;;;;;;;-144.47;50.40;53273.22;5007196;28;20165;-63
2022/05/15 06:20:56;;;;;;;30.92;7.18;;;;;;;-144.47;50.27;53247.38;5014841;28;20452;-65
2022/05/15 06:23:22;;;;;;;28.33;7.57;;;;;;;-144.47;50.24;53209.66;5011638;28;20033;-63
2022/05/15 06:25:47;;;;;;;29.45;8.38;;;;;;;-144.47;50.13;53223.56;5007762;28;20037;-63
2022/05/15 06:28:13;;;;;;;27.67;6.88;;;;;;;-144.47;49.80;53239.44;5010438;28;20574;-66
2022/05/15 06:30:38;;;;;;;33.58;7.70;;;;;;;-144.47;49.99;53221.56;5012551;28;20029;-64
2022/05/15 06:33:05;;;;;;;39.03;8.15;;;;;;;-144.47;49.84;53247.38;5005862;28;20026;-64
2022/05/15 06:35:31;;;;;;;29.42;7.40;;;;;;;-144.47;49.66;53209.66;5006047;28;20052;-64
2022/05/15 06:37:59;;;;;;;32.83;6.82;;;;;;;-144.47;49.17;53281.16;5006644;28;20030;-62
2022/05/15 06:40:24;;;;;;;29.95;6.82;;;;;;;-144.47;48.82;53245.41;5007422;28;20044;-64
2022/05/15 06:42:49;;;;;;;47.20;6.78;;;;;;;-144.47;48.89;53215.59;5007237;28;20026;-66
2022/05/15 06:45:15;;;;;;;28.77;7.55;;;;;;;-144.47;48.36;53259.31;5010990;28;20040;-66
2022/05/15 06:47:40;;;;;;;24.88;6.03;;;;;;;-144.47;48.39;53267.25;5022106;28;20025;-65
2022/05/15 06:50:07;;;;;;;32.03;8.27;;;;;;;-144.47;48.41;53251.34;5013458;28;20557;-63
2022/05/15 06:52:33;;;;;;;27.77;6.78;;;;;;;-144.47;48.25;53269.22;5010680;28;20018;-66
2022/05/15 06:54:59;;;;;;;37.50;8.32;;;;;;;-144.47;48.25;53241.44;5010353;28;20393;-65
2022/05/15 06:57:31;;;;;;;32.22;7.07;;;;;;;-144.47;48.34;53237.44;5010605;28;20495;-65
2022/05/15 07:00:06;;;;;;;22.52;7.25;;;;;;;-144.47;48.25;53251.34;5009673;28;20080;-64
2022/05/15 07:02:32;;;;;;;26.48;8.15;;;;;;;-144.47;48.29;53213.63;5020669;28;20032;-66
2022/05/15 07:04:57;;;;;;;26.48;6.65;;;;;;;-144.47;47.99;53221.56;5004520;28;20027;-63
2022/05/15 07:07:23;;;;;;;24.45;5.70;;;;;;;-144.47;47.62;53231.50;5007987;28;20033;-66
2022/05/15 07:09:48;;;;;;;43.00;7.28;;;;;;;-144.47;47.67;53225.53;5008020;28;20087;-64
2022/05/15 07:12:14;;;;;;;35.55;7.43;;;;;;;-144.47;47.47;53259.31;5010596;28;20018;-65
2022/05/15 07:14:39;;;;;;;25.20;6.85;;;;;;;-144.47;47.07;53221.56;5011127;28;20052;-64
2022/05/15 07:17:05;;;;;;;29.92;7.30;;;;;;;-144.47;47.27;53243.41;5008899;28;20041;-65
2022/05/15 07:19:30;;;;;;;34.20;6.63;;;;;;;-144.47;46.97;53253.34;5003254;28;20026;-65
2022/05/15 07:21:56;;;;;;;26.63;6.30;;;;;;;-144.47;46.65;53265.25;5001092;28;20036;-65
2022/05/15 07:24:22;;;;;;;35.40;6.07;;;;;;;-144.47;46.85;53189.78;4999934;28;20029;-64
2022/05/15 07:26:48;;;;;;;25.00;5.28;;;;;;;-144.47;45.88;53257.31;5017647;28;20026;-64
2022/05/15 07:29:15;;;;;;;29.88;5.85;;;;;;;-144.47;45.91;53203.69;5008506;28;20040;-67
2022/05/15 07:31:41;;;;;;;54.08;6.53;;;;;;;-144.47;45.07;53183.81;5015926;28;20026;-66
2022/05/15 07:34:07;;;;;;;25.48;5.60;;;;;;;-144.47;45.26;53253.34;5008610;28;20390;-66
2022/05/15 07:36:33;;;;;;;22.13;5.63;;;;;;;-144.47;45.17;53179.84;5010236;28;20035;-65
2022/05/15 07:38:58;;;;;;;25.77;5.65;;;;;;;-144.47;45.11;53201.69;5011692;28;20017;-67
2022/05/15 07:41:23;;;;;;;20.38;5.38;;;;;;;-144.47;45.01;53203.69;5010124;28;20044;-67
2022/05/15 07:43:49;;;;;;;18.25;4.72;;;;;;;-144.47;44.80;53243.41;5024259;28;20079;-63
2022/05/15 07:46:14;;;;;;;24.40;5.07;;;;;;;-144.47;44.88;53199.72;5007373;28;20451;-65
2022/05/15 07:48:39;;;;;;;27.30;5.47;;;;;;;-144.47;44.60;53223.56;5008019;28;20628;-64
2022/05/15 07:51:05;;;;;;;33.08;5.70;;;;;;;-144.47;44.66;53197.72;5008031;28;20033;-65
2022/05/15 07:53:31;;;;;;;30.42;5.28;;;;;;;-144.47;44.27;53233.47;5009724;28;20036;-64
2022/05/15 07:55:59;;;;;;;42.47;7.25;;;;;;;-144.47;43.51;53203.69;5007400;28;20025;-63
2022/05/15 07:58:25;;;;;;;30.17;5.20;;;;;;;-144.47;43.66;53237.44;5000246;28;20552;-66
2022/05/15 08:00:53;;;;;;;38.33;5.90;;;;;;;-144.47;43.69;53219.56;5003037;28;20037;-65
2022/05/15 08:03:19;;;;;;;25.38;5.43;;;;;;;-144.47;43.69;53201.69;5010255;28;20516;-63
2022/05/15 08:08:29;;;;;;;22.77;5.13;;;;;;;-144.47;44.02;53205.66;5009330;28;20547;-63
2022/05/15 08:10:54;;;;;;;26.67;4.47;;;;;;;-144.47;41.30;53183.81;5006221;28;20041;-64
2022/05/15 08:13:24;;;;;;;36.65;4.68;;;;;;;-144.47;41.77;53203.69;4981123;28;20026;-64
2022/05/15 08:15:50;;;;;;;33.78;4.75;;;;;;;-144.47;42.32;53271.22;5008255;28;20053;-64
2022/05/15 08:23:48;;;;;;;31.90;4.53;;;;;;;-144.47;41.74;53209.66;5006963;28;20037;-64
2022/05/15 08:26:14;;;;;;;23.65;4.72;;;;;;;-144.47;41.67;53227.53;5002380;28;20049;-65
2022/05/15 08:28:40;;;;;;;32.90;5.13;;;;;;;-144.47;41.21;53193.75;5005862;28;20477;-66
2022/05/15 08:31:07;;;;;;;26.42;4.43;;;;;;;-144.47;40.94;53195.75;5009129;28;20104;-61
2022/05/15 08:33:33;;;;;;;25.77;4.70;;;;;;;-144.47;40.70;53191.78;5013404;28;20045;-65
2022/05/15 08:35:59;;;;;;;31.42;4.30;;;;;;;-144.47;40.37;53211.63;5006520;28;20060;-66
2022/05/15 08:38:24;;;;;;;34.17;5.38;;;;;;;-144.47;40.92;53181.84;5005638;28;20029;-64
2022/05/15 08:40:57;;;;;;;28.42;5.25;;;;;;;-144.47;40.61;53203.69;5010647;28;20041;-64
2022/05/15 08:43:33;;;;;;;35.35;4.97;;;;;;;-144.47;40.69;53201.69;5010843;28;20033;-64
2022/05/15 08:46:04;;;;;;;46.15;4.65;;;;;;;-144.47;40.73;53189.78;5015560;28;20665;-65
2022/05/15 08:48:34;;;;;;;24.10;4.55;;;;;;;-144.47;41.05;53158.00;5002343;28;20033;-62
2022/05/15 08:51:01;;;;;;;24.08;4.50;;;;;;;-144.47;40.89;53203.69;5007807;28;20112;-63
2022/05/15 08:53:33;;;;;;;28.98;4.97;;;;;;;-144.47;40.81;53201.69;5004296;28;20026;-64
2022/05/15 08:56:00;;;;;;;28.23;4.85;;;;;;;-144.47;40.88;53205.66;5015228;28;20082;-63
2022/05/15 08:58:47;;;;;;;41.70;6.03;;;;;;;-144.47;40.63;53167.94;5018169;28;20023;-65
2022/05/15 09:01:17;;;;;;;36.50;5.38;;;;;;;-144.47;40.59;53213.63;5005134;28;20151;-65
2022/05/15 09:03:43;;;;;;;32.95;3.95;;;;;;;-144.47;40.17;53189.78;5002929;28;20132;-63
2022/05/15 09:06:23;;;;;;;34.63;4.90;;;;;;;-144.47;40.07;53171.91;5008302;28;20081;-64
2022/05/15 09:09:15;;;;;;;35.45;4.47;;;;;;;-144.47;39.91;53167.94;4984785;28;20041;-65
2022/05/15 09:11:53;;;;;;;42.10;5.28;;;;;;;-144.47;39.97;53152.03;4988115;28;20053;-66
2022/05/15 09:14:24;;;;;;;31.27;4.47;;;;;;;-144.47;39.79;53187.78;4999243;28;20516;-66
2022/05/15 09:16:55;;;;;;;34.28;5.88;;;;;;;-144.47;39.96;53205.66;5000286;28;20057;-64
2022/05/15 09:19:22;;;;;;;31.80;5.63;;;;;;;-144.47;40.19;53175.88;4999405;28;20038;-61
2022/05/15 09:21:51;;;;;;;33.13;5.70;;;;;;;-144.47;39.60;53165.94;4989293;28;20444;-64
2022/05/15 09:24:28;;;;;;;37.92;4.82;;;;;;;-144.47;39.73;53181.84;5008318;28;20456;-64
2022/05/15 09:26:54;;;;;;;22.58;4.65;;;;;;;-144.47;39.40;53183.81;5015256;28;20075;-65
2022/05/15 09:29:23;;;;;;;33.38;5.25;;;;;;;-144.47;39.48;53158.00;4989958;28;20034;-65
2022/05/15 09:31:49;;;;;;;41.83;6.57;;;;;;;-144.47;39.49;53175.88;5006323;28;20022;-65
2022/05/15 09:34:21;;;;;;;32.42;5.57;;;;;;;-144.47;39.53;53205.66;5016434;28;20036;-65
2022/05/15 09:36:49;;;;;;;34.00;5.25;;;;;;;-144.47;39.22;53193.75;5009914;28;20043;-64
2022/05/15 09:39:37;;;;;;;37.65;4.80;;;;;;;-144.47;39.48;53189.78;5013510;28;20515;-65
2022/05/15 09:45:19;;;;;;;42.78;5.80;;;;;;;-144.47;39.60;53189.78;5017020;28;20045;-65
2022/05/15 09:48:00;;;;;;;50.15;5.53;;;;;;;-144.47;39.69;53179.84;5013114;28;20046;-65
2022/05/15 09:50:40;;;;;;;32.42;5.15;;;;;;;-144.47;38.81;53189.78;5011707;28;20060;-63
2022/05/15 09:53:21;;;;;;;30.13;5.60;;;;;;;-144.47;38.73;53189.78;5008857;28;20080;-64
2022/05/15 09:56:02;;;;;;;34.85;5.22;;;;;;;-144.47;38.49;53148.06;5010727;28;20124;-63
2022/05/15 09:58:40;;;;;;;23.00;5.18;;;;;;;-144.47;38.57;53173.88;5012342;28;20511;-64
2022/05/15 10:01:12;;;;;;;35.15;5.57;;;;;;;-144.47;38.78;53173.88;5007399;28;20026;-64
2022/05/15 10:03:37;;;;;;;24.25;5.03;;;;;;;-144.47;38.97;53156.00;5013343;28;20029;-65
2022/05/15 10:06:08;;;;;;;24.17;4.80;;;;;;;-144.47;38.31;53126.22;5012347;28;20121;-63
2022/05/15 10:08:33;;;;;;;33.83;5.20;;;;;;;-144.47;38.39;53203.69;5010240;28;20103;-66
2022/05/15 10:11:11;;;;;;;36.17;5.93;;;;;;;-144.47;38.38;53163.97;5013371;28;20516;-65
2022/05/15 10:13:52;;;;;;;32.70;5.38;;;;;;;-144.47;38.69;53156.00;5007996;28;20033;-63
2022/05/15 10:16:27;;;;;;;27.50;5.15;;;;;;;-144.47;38.76;53171.91;5011446;28;20124;-63
2022/05/15 10:19:10;;;;;;;36.20;5.13;;;;;;;-144.47;38.25;53177.88;5014883;28;20041;-65
2022/05/15 10:21:40;;;;;;;53.08;5.78;;;;;;;-144.47;37.84;53167.94;5015010;28;20057;-63
2022/05/15 10:24:14;;;;;;;30.27;6.13;;;;;;;-144.47;37.74;53221.56;5014306;28;20029;-63
2022/05/15 10:26:57;;;;;;;21.30;5.05;;;;;;;-144.47;37.60;53163.97;5010682;28;20029;-65
2022/05/15 10:29:36;;;;;;;26.80;4.55;;;;;;;-144.47;36.90;53163.97;5013707;28;20038;-64
2022/05/15 10:32:42;;;;;;;34.85;5.20;;;;;;;-144.47;36.75;53150.06;5013059;28;20065;-65
2022/05/15 10:35:13;;;;;;;21.60;3.92;;;;;;;-144.47;36.18;53156.00;5003088;28;20623;-62
2022/05/15 10:37:50;;;;;;;28.15;5.20;;;;;;;-144.47;36.48;53173.88;5015173;28;20564;-64
2022/05/15 10:40:18;;;;;;;27.30;5.15;;;;;;;-144.47;36.32;53152.03;5015403;28;20060;-64
2022/05/15 10:43:14;;;;;;;27.30;4.97;;;;;;;-144.47;36.01;53142.09;5013513;28;20417;-67
2022/05/15 10:45:56;;;;;;;24.38;4.93;;;;;;;-144.47;35.85;53150.06;5007819;28;20374;-67
2022/05/15 10:48:43;;;;;;;30.90;4.95;;;;;;;-144.47;35.05;53150.06;4999972;28;20126;-63
2022/05/15 10:51:20;;;;;;;35.22;4.95;;;;;;;-144.47;35.10;53138.13;5009914;28;20517;-67
2022/05/15 10:59:54;;;;;;;30.27;4.10;;;;;;;-144.47;35.61;53134.16;5007138;28;20044;-64
2022/05/15 11:02:44;;;;;;;28.88;4.57;;;;;;;-144.47;35.36;53146.09;5012136;28;20043;-66
2022/05/15 11:05:20;;;;;;;39.13;5.15;;;;;;;-144.47;35.72;53179.84;5010707;28;20026;-65
2022/05/15 11:08:07;;;;;;;35.20;6.35;;;;;;;-144.47;35.17;53187.78;5003056;28;20081;-64
2022/05/15 11:10:45;;;;;;;26.45;4.45;;;;;;;-144.47;35.10;53169.91;5011221;28;20623;-64
2022/05/15 11:13:13;;;;;;;;;;;;;;;-144.47;34.98;53156.00;5012233;28;20493;-66
2022/05/15 11:15:42;;;;;;;18.23;4.15;;;;;;;-144.47;34.84;53122.25;5010807;28;19916;-66
2022/05/15 11:18:43;;;;;;;19.80;4.63;;;;;;;-144.47;34.54;53146.09;5014356;28;20401;-64
2022/05/15 11:21:14;;;;;;;28.08;4.97;;;;;;;-144.47;34.65;53140.13;5008427;28;20053;-64
2022/05/15 11:23:47;;;;;;;36.53;4.20;;;;;;;-144.47;35.23;53152.03;5010559;28;20246;-65
2022/05/15 11:26:23;;;;;;;26.17;4.50;;;;;;;-144.47;34.86;53122.25;4990656;28;20026;-64
2022/05/15 11:28:55;;;;;;;25.85;4.13;;;;;;;-144.47;34.97;53118.28;5008467;28;20029;-66
2022/05/15 11:31:24;;;;;;;25.55;5.00;;;;;;;-144.47;35.37;53150.06;5012950;28;20036;-64
2022/05/15 11:33:51;;;;;;;27.52;4.40;;;;;;;-144.47;35.16;53142.09;5007255;28;20034;-66
2022/05/15 11:36:22;;;;;;;21.27;4.35;;;;;;;-144.47;34.69;53118.28;5019859;28;20446;-63